Time;durP1;ratioP1;P1;durP2;ratioP2;P2;SDS_P1;SDS_P2;PMS_P1;PMS_P2;Temp;Humidity;BMP_temperature;BMP_pressure;BME280_temperature;BME280_humidity;BME280_pressure;Samples;Min_cycle;Max_cycle;Signal;HPM_P1;HPM_P2
2023/01/28 00:00:08;;;;;;;4.10;3.70;;;3.30;99.90;;;;;;5013029;28;20050;-70
2023/01/28 00:02:35;;;;;;;4.65;3.83;;;2.90;99.90;;;;;;5011160;28;20058;-69
2023/01/28 00:05:01;;;;;;;5.38;4.10;;;3.40;99.90;;;;;;5044680;28;20062;-69
2023/01/28 00:07:26;;;;;;;5.32;4.03;;;3.40;99.90;;;;;;5027709;28;20050;-70
2023/01/28 00:09:52;;;;;;;4.47;3.63;;;3.40;99.90;;;;;;5028209;28;20069;-69
2023/01/28 00:12:18;;;;;;;6.72;4.20;;;4.30;99.90;;;;;;5012476;28;20077;-70
2023/01/28 00:14:45;;;;;;;4.93;3.65;;;4.10;99.90;;;;;;5012719;28;20140;-71
2023/01/28 00:17:11;;;;;;;5.53;3.92;;;3.50;99.90;;;;;;5011480;28;20060;-70
2023/01/28 00:19:37;;;;;;;4.60;3.63;;;2.80;99.90;;;;;;5012222;28;20053;-69
2023/01/28 00:22:03;;;;;;;3.70;3.17;;;2.90;99.90;;;;;;5011209;28;20041;-70
2023/01/28 00:24:29;;;;;;;4.95;3.58;;;3.40;99.90;;;;;;5012704;28;20046;-70
2023/01/28 00:26:55;;;;;;;5.13;3.95;;;3.80;99.90;;;;;;5012286;28;20060;-71
2023/01/28 00:29:20;;;;;;;4.57;3.67;;;3.60;99.90;;;;;;5011516;28;20050;-71
2023/01/28 00:31:46;;;;;;;5.47;4.00;;;3.50;99.90;;;;;;5010200;28;20492;-70
2023/01/28 00:34:12;;;;;;;5.07;3.42;;;2.90;99.90;;;;;;5010953;28;20042;-70
2023/01/28 00:36:38;;;;;;;4.75;3.75;;;3.70;99.90;;;;;;5012249;28;20092;-69
2023/01/28 00:39:05;;;;;;;4.78;4.03;;;2.90;99.90;;;;;;5010959;28;20061;-69
2023/01/28 00:41:31;;;;;;;5.40;3.72;;;3.80;99.90;;;;;;5011942;28;20095;-70
2023/01/28 00:43:57;;;;;;;6.38;3.92;;;3.60;99.90;;;;;;5012406;28;20053;-70
2023/01/28 00:46:27;;;;;;;4.80;3.38;;;3.10;99.90;;;;;;5011786;28;20061;-70
2023/01/28 00:48:53;;;;;;;5.43;3.38;;;2.80;99.90;;;;;;5012076;28;20054;-69
2023/01/28 00:51:20;;;;;;;4.13;2.85;;;3.70;99.90;;;;;;5011152;28;20088;-69
2023/01/28 00:53:46;;;;;;;4.20;3.20;;;3.10;99.90;;;;;;5012180;28;20061;-69
2023/01/28 00:56:14;;;;;;;4.30;3.17;;;3.20;99.90;;;;;;5011958;28;20431;-69
2023/01/28 00:58:41;;;;;;;4.75;3.15;;;3.20;99.90;;;;;;5011602;28;20050;-69
2023/01/28 01:01:16;;;;;;;4.07;3.17;;;2.80;99.90;;;;;;5010074;28;20069;-69
2023/01/28 01:03:42;;;;;;;3.67;2.75;;;3.60;99.90;;;;;;5011782;28;20132;-70
2023/01/28 01:06:09;;;;;;;5.10;2.78;;;3.50;99.90;;;;;;5011490;28;20777;-70
2023/01/28 01:08:34;;;;;;;3.25;2.13;;;3.70;99.90;;;;;;5011606;28;20407;-69
2023/01/28 01:11:05;;;;;;;3.45;2.22;;;2.70;99.90;;;;;;5011256;28;20045;-69
2023/01/28 01:13:33;;;;;;;3.03;1.60;;;3.00;99.90;;;;;;5011607;28;20072;-70
2023/01/28 01:16:15;;;;;;;2.22;1.67;;;3.00;99.90;;;;;;5011605;28;20153;-69
2023/01/28 01:18:41;;;;;;;2.40;1.58;;;3.20;99.90;;;;;;5011812;28;20752;-70
2023/01/28 01:21:14;;;;;;;1.90;1.40;;;3.10;99.90;;;;;;5011378;28;20058;-69
2023/01/28 01:23:40;;;;;;;2.80;1.40;;;3.30;99.90;;;;;;5043396;28;20053;-70
2023/01/28 01:26:06;;;;;;;1.77;1.25;;;3.80;99.90;;;;;;5011103;28;20192;-69
2023/01/28 01:28:32;;;;;;;2.60;1.55;;;3.20;99.90;;;;;;5011536;28;20487;-70
2023/01/28 01:31:15;;;;;;;1.73;1.35;;;3.10;99.90;;;;;;5010894;28;20060;-70
2023/01/28 01:33:41;;;;;;;2.00;1.25;;;2.90;99.90;;;;;;5011223;28;20045;-70
2023/01/28 01:36:08;;;;;;;2.00;1.10;;;3.00;99.90;;;;;;5043299;28;20103;-70
2023/01/28 01:38:35;;;;;;;2.45;1.33;;;2.80;99.90;;;;;;5009669;28;20465;-69
2023/01/28 01:41:02;;;;;;;2.58;1.40;;;3.20;99.90;;;;;;5011121;28;20132;-70
2023/01/28 01:44:05;;;;;;;3.17;1.30;;;3.20;99.90;;;;;;5042933;28;20045;-70
2023/01/28 01:46:44;;;;;;;4.03;1.60;;;2.80;99.90;;;;;;4957321;28;20046;-69
2023/01/28 01:49:26;;;;;;;2.03;1.25;;;2.80;99.90;;;;;;5007387;28;20523;-69
2023/01/28 01:52:15;;;;;;;2.00;1.40;;;2.70;99.90;;;;;;5046653;28;20454;-69
2023/01/28 01:54:45;;;;;;;1.73;1.20;;;3.20;99.90;;;;;;5014217;28;20048;-69
2023/01/28 01:57:15;;;;;;;1.65;1.08;;;2.90;99.90;;;;;;5046332;28;20061;-69
2023/01/28 01:59:42;;;;;;;2.22;1.30;;;2.90;99.90;;;;;;5014518;28;20052;-69
2023/01/28 02:02:10;;;;;;;2.50;1.38;;;3.50;99.90;;;;;;5014096;28;20065;-69
2023/01/28 02:04:43;;;;;;;2.28;1.38;;;2.90;99.90;;;;;;5014062;28;20356;-69
2023/01/28 02:07:13;;;;;;;1.75;1.30;;;2.70;99.90;;;;;;5012781;28;20117;-69
2023/01/28 02:09:40;;;;;;;2.17;1.38;;;2.80;99.90;;;;;;5012886;28;20502;-69
2023/01/28 02:12:14;;;;;;;1.88;1.40;;;2.80;99.90;;;;;;5014546;28;20049;-69
2023/01/28 02:14:44;;;;;;;2.25;1.40;;;3.00;99.90;;;;;;5012653;28;20054;-69
2023/01/28 02:17:10;;;;;;;2.28;1.30;;;3.20;99.90;;;;;;5014153;28;20053;-68
2023/01/28 02:19:52;;;;;;;2.97;1.58;;;3.00;99.90;;;;;;5013896;28;20058;-69
2023/01/28 02:22:42;;;;;;;1.83;1.20;;;2.70;99.90;;;;;;5013259;28;20068;-69
2023/01/28 02:25:11;;;;;;;2.22;1.50;;;2.70;99.90;;;;;;5013161;28;20223;-69
2023/01/28 02:28:08;;;;;;;1.80;1.27;;;3.70;99.90;;;;;;5012912;28;20046;-69
2023/01/28 02:30:47;;;;;;;4.95;1.92;;;2.80;99.90;;;;;;5013494;28;20477;-69
2023/01/28 02:33:33;;;;;;;4.22;1.50;;;2.70;99.90;;;;;;5013526;28;20046;-69
2023/01/28 02:36:06;;;;;;;1.98;1.30;;;3.20;99.90;;;;;;5014045;28;20053;-68
2023/01/28 02:38:38;;;;;;;2.58;1.85;;;3.10;99.90;;;;;;5013762;28;20050;-69
2023/01/28 02:41:09;;;;;;;2.58;1.50;;;3.10;99.90;;;;;;5013063;28;20057;-69
2023/01/28 02:43:44;;;;;;;2.58;1.38;;;3.30;99.90;;;;;;5013896;28;20050;-69
2023/01/28 02:49:19;;;;;;;2.35;1.52;;;2.80;99.90;;;;;;5013896;28;20045;-69
2023/01/28 02:51:57;;;;;;;2.85;1.73;;;3.00;99.90;;;;;;5012507;28;20483;-69
2023/01/28 02:54:36;;;;;;;2.05;1.50;;;3.00;99.90;;;;;;5013652;28;20057;-69
2023/01/28 02:57:04;;;;;;;2.38;1.45;;;2.60;99.90;;;;;;5013707;28;20073;-69
2023/01/28 03:00:00;;;;;;;4.05;1.60;;;2.80;99.90;;;;;;5014052;28;20049;-69
2023/01/28 03:02:56;;;;;;;2.55;1.50;;;2.70;99.90;;;;;;4995840;28;20065;-69
2023/01/28 03:05:40;;;;;;;2.20;1.73;;;3.10;99.90;;;;;;5012829;28;20089;-69
2023/01/28 03:38:57;;;;;;;2.22;1.60;;;3.00;99.90;;;;;;5013499;28;20096;-65
2023/01/28 03:41:25;;;;;;;2.30;1.80;;;3.20;99.90;;;;;;5012495;28;20141;-65
2023/01/28 03:43:52;;;;;;;3.28;2.15;;;3.20;99.90;;;;;;5012434;28;20062;-65
2023/01/28 03:46:18;;;;;;;2.85;1.77;;;2.80;99.90;;;;;;5013771;28;20050;-65
2023/01/28 03:48:44;;;;;;;3.38;2.03;;;2.70;99.90;;;;;;5012415;28;20075;-65
2023/01/28 03:51:10;;;;;;;3.30;2.28;;;2.90;99.90;;;;;;5013613;28;20104;-65
2023/01/28 03:53:37;;;;;;;3.15;1.90;;;2.60;99.90;;;;;;5012119;28;20398;-65
2023/01/28 03:56:03;;;;;;;2.95;1.92;;;3.30;99.90;;;;;;5013340;28;20128;-66
2023/01/28 04:01:13;;;;;;;3.03;2.00;;;2.80;99.90;;;;;;5012517;28;20050;-65
2023/01/28 04:03:38;;;;;;;2.70;1.70;;;3.20;99.90;;;;;;5012031;28;20379;-65
2023/01/28 04:06:07;;;;;;;2.95;1.95;;;2.60;99.90;;;;;;5014473;28;20402;-65
2023/01/28 04:08:33;;;;;;;5.38;2.42;;;2.50;99.90;;;;;;5016797;28;20049;-65
2023/01/28 04:11:14;;;;;;;2.40;1.98;;;2.80;99.90;;;;;;5016484;28;20491;-65
2023/01/28 04:13:43;;;;;;;2.55;2.03;;;3.10;99.90;;;;;;5016628;28;20041;-66
2023/01/28 04:16:11;;;;;;;3.75;2.38;;;3.40;99.90;;;;;;5015358;28;20128;-65
2023/01/28 04:18:37;;;;;;;2.97;2.10;;;2.70;99.90;;;;;;5017095;28;20053;-65
2023/01/28 04:21:03;;;;;;;4.22;2.50;;;2.70;99.90;;;;;;5016579;28;20111;-65
2023/01/28 04:23:29;;;;;;;6.00;3.33;;;2.60;99.90;;;;;;5015643;28;20049;-66
2023/01/28 04:25:55;;;;;;;4.35;2.67;;;3.00;99.90;;;;;;5015243;28;20132;-65
2023/01/28 04:28:21;;;;;;;3.33;2.60;;;2.60;99.90;;;;;;5016419;28;20145;-65
2023/01/28 04:30:47;;;;;;;4.22;3.47;;;2.40;99.90;;;;;;5016385;28;20049;-65
2023/01/28 04:33:13;;;;;;;3.53;2.35;;;2.70;99.90;;;;;;5016991;28;20375;-65
2023/01/28 04:35:39;;;;;;;5.32;2.47;;;2.80;99.90;;;;;;5015118;28;20096;-65
2023/01/28 04:38:05;;;;;;;3.42;2.42;;;3.00;99.90;;;;;;5015145;28;20077;-65
2023/01/28 04:40:30;;;;;;;5.18;3.03;;;3.10;99.90;;;;;;5015610;28;20042;-65
2023/01/28 04:42:56;;;;;;;4.82;2.83;;;3.30;99.90;;;;;;5015047;28;20092;-65
2023/01/28 04:45:22;;;;;;;4.35;2.78;;;2.60;99.90;;;;;;5016038;28;20092;-65
2023/01/28 04:47:48;;;;;;;5.65;3.00;;;2.60;99.90;;;;;;5016445;28;20081;-65
2023/01/28 04:50:14;;;;;;;4.20;3.17;;;2.90;99.90;;;;;;4999490;28;20535;-65
2023/01/28 04:52:40;;;;;;;6.80;3.20;;;2.50;99.90;;;;;;5014798;28;20092;-65
2023/01/28 04:55:07;;;;;;;3.75;2.72;;;3.40;99.90;;;;;;5016089;28;20049;-65
2023/01/28 04:57:33;;;;;;;5.45;2.53;;;2.70;99.90;;;;;;5016684;28;20444;-65
2023/01/28 04:59:58;;;;;;;5.75;2.38;;;3.00;99.90;;;;;;5014659;28;20085;-65
2023/01/28 05:02:24;;;;;;;4.47;2.75;;;3.50;99.90;;;;;;5014591;28;20368;-65
2023/01/28 05:04:50;;;;;;;4.03;2.63;;;3.30;99.90;;;;;;5015609;28;20057;-65
2023/01/28 05:07:15;;;;;;;3.28;2.47;;;2.70;99.90;;;;;;5015164;28;20052;-65
2023/01/28 05:09:41;;;;;;;5.03;3.38;;;3.30;99.90;;;;;;5015901;28;20045;-65
2023/01/28 05:12:07;;;;;;;4.22;2.90;;;3.10;99.90;;;;;;5014369;28;20096;-65
2023/01/28 05:14:32;;;;;;;3.67;2.80;;;3.20;99.90;;;;;;5015759;28;20052;-66
2023/01/28 05:16:58;;;;;;;4.72;3.28;;;3.60;99.90;;;;;;5015710;28;20493;-65
2023/01/28 05:19:24;;;;;;;4.90;2.85;;;2.80;99.90;;;;;;5014741;28;20049;-65
2023/01/28 05:21:50;;;;;;;4.47;2.65;;;2.70;99.90;;;;;;5015318;28;20037;-65
2023/01/28 05:24:15;;;;;;;4.50;2.95;;;3.20;99.90;;;;;;5015482;28;20479;-66
2023/01/28 05:26:41;;;;;;;4.68;3.10;;;3.10;99.90;;;;;;5014125;28;20050;-65
2023/01/28 05:29:07;;;;;;;4.20;3.05;;;2.90;99.90;;;;;;5015549;28;20042;-65
2023/01/28 05:31:33;;;;;;;4.07;2.30;;;2.50;99.90;;;;;;5014325;28;20046;-65
2023/01/28 05:33:59;;;;;;;4.50;3.30;;;2.80;99.90;;;;;;5014254;28;20049;-65
2023/01/28 05:36:25;;;;;;;5.40;3.20;;;2.60;99.90;;;;;;5014815;28;20053;-65
2023/01/28 05:38:50;;;;;;;3.15;2.53;;;3.10;99.90;;;;;;5014356;28;20081;-65
2023/01/28 05:41:16;;;;;;;5.13;3.13;;;3.60;99.90;;;;;;5013900;28;20095;-65
2023/01/28 05:43:42;;;;;;;3.75;2.97;;;2.50;99.90;;;;;;5014599;28;20077;-65
2023/01/28 05:46:08;;;;;;;5.03;2.92;;;2.70;99.90;;;;;;5015513;28;20081;-65
2023/01/28 05:48:33;;;;;;;4.13;2.80;;;2.30;99.90;;;;;;5015384;28;20371;-65
2023/01/28 05:50:59;;;;;;;4.20;2.95;;;2.70;99.90;;;;;;5013796;28;20427;-65
2023/01/28 05:53:25;;;;;;;4.45;3.17;;;2.70;99.90;;;;;;5014804;28;20050;-66
2023/01/28 05:55:52;;;;;;;4.20;2.75;;;3.30;99.90;;;;;;5013395;28;20085;-65
2023/01/28 05:58:18;;;;;;;4.03;2.80;;;2.40;99.90;;;;;;5014837;28;20085;-65
2023/01/28 06:00:44;;;;;;;4.72;3.13;;;2.50;99.90;;;;;;5014425;28;20046;-65
2023/01/28 06:03:10;;;;;;;4.65;2.75;;;2.30;99.90;;;;;;5015461;28;20048;-65
2023/01/28 06:05:36;;;;;;;3.10;2.55;;;3.40;99.90;;;;;;5014642;28;20388;-65
2023/01/28 06:08:02;;;;;;;3.70;2.92;;;2.40;99.90;;;;;;5014459;28;20057;-65
2023/01/28 06:10:28;;;;;;;5.45;3.15;;;2.60;99.90;;;;;;5013365;28;20099;-65
2023/01/28 06:12:54;;;;;;;3.95;3.10;;;2.60;99.90;;;;;;5014786;28;20038;-65
2023/01/28 06:15:21;;;;;;;4.80;3.47;;;3.30;99.90;;;;;;5013681;28;20053;-65
2023/01/28 06:17:46;;;;;;;6.30;3.25;;;2.70;99.90;;;;;;5014498;28;20046;-65
2023/01/28 06:20:12;;;;;;;4.00;3.30;;;2.50;99.90;;;;;;5015282;28;20073;-65
2023/01/28 06:22:38;;;;;;;4.13;3.10;;;2.70;99.90;;;;;;5014377;28;20038;-65
2023/01/28 06:25:04;;;;;;;3.85;3.03;;;2.30;99.90;;;;;;5014325;28;20116;-65
2023/01/28 06:27:30;;;;;;;4.65;3.40;;;2.30;99.90;;;;;;5014303;28;20049;-65
2023/01/28 06:29:56;;;;;;;4.43;3.40;;;2.60;99.90;;;;;;4996800;28;20494;-66
2023/01/28 06:32:21;;;;;;;4.88;3.75;;;2.70;99.90;;;;;;5014043;28;20042;-65
2023/01/28 06:34:47;;;;;;;5.35;4.35;;;3.00;99.90;;;;;;5012987;28;20046;-65
2023/01/28 06:37:13;;;;;;;6.45;4.57;;;2.90;99.90;;;;;;5014672;28;20467;-65
2023/01/28 06:39:39;;;;;;;5.25;4.05;;;2.40;99.90;;;;;;5013403;28;20061;-65
2023/01/28 06:42:04;;;;;;;6.43;4.88;;;2.10;99.90;;;;;;5014509;28;20045;-65
2023/01/28 06:44:30;;;;;;;6.63;4.43;;;2.00;99.90;;;;;;5014266;28;20467;-65
2023/01/28 06:46:56;;;;;;;6.63;4.97;;;2.30;99.90;;;;;;5014023;28;20116;-65
2023/01/28 06:49:22;;;;;;;6.20;4.80;;;2.30;99.90;;;;;;4996483;28;20046;-65
2023/01/28 06:51:48;;;;;;;6.22;4.50;;;2.70;99.90;;;;;;5013771;28;20100;-65
2023/01/28 06:54:14;;;;;;;6.07;4.65;;;2.10;99.90;;;;;;5013926;28;20053;-66
2023/01/28 06:56:40;;;;;;;5.78;4.68;;;2.00;99.90;;;;;;5012803;28;20081;-65
2023/01/28 06:59:06;;;;;;;7.72;4.63;;;2.20;99.90;;;;;;5014340;28;20042;-65
2023/01/28 07:01:32;;;;;;;6.25;4.72;;;3.70;99.90;;;;;;5012536;28;20046;-65
2023/01/28 07:03:58;;;;;;;6.03;4.57;;;2.10;99.90;;;;;;5014113;28;20088;-65
2023/01/28 07:06:23;;;;;;;5.88;4.65;;;2.10;99.90;;;;;;5012417;28;20085;-66
2023/01/28 07:08:49;;;;;;;5.60;4.40;;;2.70;99.90;;;;;;5012874;28;20391;-65
2023/01/28 07:11:15;;;;;;;5.82;4.47;;;2.40;99.90;;;;;;5013373;28;20046;-65
2023/01/28 07:13:42;;;;;;;6.15;4.53;;;2.90;99.90;;;;;;5013653;28;20049;-66
2023/01/28 07:16:08;;;;;;;5.30;4.40;;;2.00;99.90;;;;;;5013790;28;20458;-66
2023/01/28 07:18:34;;;;;;;7.47;5.45;;;3.20;99.90;;;;;;5013238;28;20518;-65
2023/01/28 07:21:00;;;;;;;9.20;6.00;;;2.90;99.90;;;;;;5013554;28;20046;-65
2023/01/28 07:23:25;;;;;;;9.20;6.43;;;2.70;99.90;;;;;;5013615;28;20049;-66
2023/01/28 07:25:51;;;;;;;11.65;6.65;;;2.60;99.90;;;;;;5012397;28;20471;-65
2023/01/28 07:28:20;;;;;;;10.32;6.93;;;2.40;99.90;;;;;;5013606;28;20104;-65
2023/01/28 07:30:52;;;;;;;8.68;6.70;;;2.20;99.90;;;;;;5013508;28;20046;-65
2023/01/28 07:33:17;;;;;;;12.05;7.78;;;1.80;99.90;;;;;;5012031;28;20042;-65
2023/01/28 07:35:44;;;;;;;10.38;6.93;;;2.00;99.90;;;;;;5013455;28;20048;-65
2023/01/28 07:38:10;;;;;;;7.88;5.68;;;2.00;99.90;;;;;;5013498;28;20045;-65
2023/01/28 07:40:35;;;;;;;9.55;6.53;;;2.20;99.90;;;;;;5012445;28;20099;-65
2023/01/28 07:43:01;;;;;;;6.90;5.22;;;1.90;99.90;;;;;;5017040;28;20041;-65
2023/01/28 07:45:29;;;;;;;7.13;5.13;;;2.70;99.90;;;;;;5017268;28;20069;-65
2023/01/28 07:47:56;;;;;;;8.57;5.93;;;1.70;99.90;;;;;;5017220;28;20095;-65
2023/01/28 07:50:21;;;;;;;8.13;5.03;;;2.30;99.90;;;;;;5017242;28;20479;-65
2023/01/28 07:52:47;;;;;;;6.05;4.70;;;1.60;99.90;;;;;;5017359;28;20038;-65
2023/01/28 07:55:14;;;;;;;7.07;5.57;;;2.30;99.90;;;;;;5017117;28;20470;-65
2023/01/28 07:58:00;;;;;;;6.85;5.35;;;1.70;99.90;;;;;;5017786;28;20046;-65
2023/01/28 08:00:28;;;;;;;5.90;4.65;;;2.10;99.90;;;;;;5016042;28;20046;-66
2023/01/28 08:02:58;;;;;;;8.20;5.53;;;1.90;99.90;;;;;;5016846;28;20056;-65
2023/01/28 08:05:25;;;;;;;8.13;5.65;;;1.40;99.90;;;;;;5015288;28;20061;-65
2023/01/28 08:07:51;;;;;;;7.18;5.82;;;2.20;99.90;;;;;;5017396;28;20100;-65
2023/01/28 08:10:18;;;;;;;6.53;5.65;;;1.80;99.90;;;;;;5016706;28;20426;-65
2023/01/28 08:12:54;;;;;;;6.75;5.53;;;1.70;99.90;;;;;;5016470;28;20519;-65
2023/01/28 08:15:20;;;;;;;6.57;5.55;;;1.90;99.90;;;;;;5016663;28;20073;-65
2023/01/28 08:17:45;;;;;;;6.90;5.72;;;1.50;99.90;;;;;;5016552;28;20114;-65
2023/01/28 08:20:12;;;;;;;6.97;5.82;;;1.70;99.90;;;;;;5016458;28;20475;-65
2023/01/28 08:22:38;;;;;;;7.90;5.80;;;1.40;99.90;;;;;;5015322;28;20054;-65
2023/01/28 08:25:04;;;;;;;6.45;4.75;;;1.60;99.90;;;;;;5016745;28;20379;-65
2023/01/28 08:27:30;;;;;;;5.78;4.70;;;1.40;99.90;;;;;;5016493;28;20042;-66
2023/01/28 08:29:55;;;;;;;7.45;4.60;;;1.90;99.90;;;;;;5016126;28;20072;-66
2023/01/28 08:32:21;;;;;;;6.88;4.55;;;2.00;99.90;;;;;;5016249;28;20038;-66
2023/01/28 08:34:47;;;;;;;6.25;4.15;;;1.90;99.90;;;;;;5015174;28;20049;-66
2023/01/28 08:37:12;;;;;;;5.82;4.35;;;1.40;99.90;;;;;;5015532;28;20053;-66
2023/01/28 08:39:38;;;;;;;5.78;4.68;;;1.40;99.90;;;;;;5015875;28;20136;-66
2023/01/28 08:42:05;;;;;;;6.85;4.50;;;2.20;99.90;;;;;;5016996;28;20041;-66
2023/01/28 08:44:32;;;;;;;6.07;4.65;;;1.80;99.90;;;;;;5016263;28;20060;-65
2023/01/28 08:46:58;;;;;;;7.60;4.90;;;2.00;99.90;;;;;;5015977;28;20058;-66
2023/01/28 08:49:23;;;;;;;7.38;4.90;;;2.90;99.90;;;;;;5016697;28;20042;-65
2023/01/28 08:51:49;;;;;;;6.57;4.60;;;2.10;99.90;;;;;;5015600;28;20129;-65
2023/01/28 08:54:15;;;;;;;7.82;5.10;;;1.80;99.90;;;;;;5016021;28;20537;-65
2023/01/28 08:56:43;;;;;;;5.53;4.78;;;2.00;99.90;;;;;;5015917;28;20081;-65
2023/01/28 08:59:10;;;;;;;7.90;4.63;;;1.40;99.90;;;;;;4998796;28;20071;-65
2023/01/28 09:01:36;;;;;;;6.30;4.68;;;2.10;99.90;;;;;;5014324;28;20045;-67
2023/01/28 09:04:02;;;;;;;5.85;4.38;;;3.00;99.90;;;;;;5014625;28;20390;-67
2023/01/28 09:06:28;;;;;;;8.02;5.43;;;2.10;99.90;;;;;;5015152;28;20112;-67
2023/01/28 09:08:58;;;;;;;7.47;5.07;;;1.70;99.90;;;;;;5014587;28;20093;-67
2023/01/28 09:11:24;;;;;;;6.88;4.93;;;1.80;99.90;;;;;;5015732;28;20046;-67
2023/01/28 09:13:50;;;;;;;7.53;4.80;;;1.90;99.90;;;;;;5015431;28;20092;-67
2023/01/28 09:16:16;;;;;;;6.75;4.38;;;1.80;99.90;;;;;;5015483;28;20045;-67
2023/01/28 09:18:42;;;;;;;7.90;5.40;;;2.00;99.90;;;;;;5015587;28;20157;-67
2023/01/28 09:21:07;;;;;;;7.38;4.28;;;1.80;99.90;;;;;;5015342;28;20041;-67
2023/01/28 09:23:35;;;;;;;6.40;4.45;;;2.10;99.90;;;;;;5014905;28;20475;-67
2023/01/28 09:26:02;;;;;;;7.10;4.43;;;2.40;99.90;;;;;;5015443;28;20104;-68
2023/01/28 09:28:28;;;;;;;5.32;3.40;;;2.60;99.90;;;;;;5014755;28;20050;-67
2023/01/28 09:31:01;;;;;;;7.82;4.07;;;2.60;99.90;;;;;;5015513;28;20050;-67
2023/01/28 09:33:26;;;;;;;5.55;3.95;;;2.20;99.90;;;;;;5014126;28;20127;-67
2023/01/28 09:35:52;;;;;;;5.13;3.53;;;2.30;99.90;;;;;;5015317;28;20085;-67
2023/01/28 09:38:18;;;;;;;6.20;4.10;;;2.50;99.90;;;;;;5014041;28;20406;-67
2023/01/28 09:40:44;;;;;;;9.70;4.57;;;2.50;99.90;;;;;;5015158;28;20053;-67
2023/01/28 09:43:40;;;;;;;7.75;4.50;;;3.10;99.90;;;;;;5013960;28;20042;-67
2023/01/28 09:46:09;;;;;;;7.95;4.53;;;2.60;99.90;;;;;;5016048;28;20072;-67
2023/01/28 09:48:43;;;;;;;8.45;5.13;;;2.40;99.90;;;;;;5015134;28;20049;-67
2023/01/28 09:51:34;;;;;;;6.68;3.97;;;2.60;99.90;;;;;;5013858;28;20058;-68
2023/01/28 09:54:23;;;;;;;6.30;3.95;;;2.30;99.90;;;;;;5013818;28;20085;-67
2023/01/28 09:56:59;;;;;;;6.72;3.75;;;2.90;99.90;;;;;;5009927;28;20050;-66
2023/01/28 09:59:24;;;;;;;5.93;3.85;;;2.80;99.90;;;;;;5015000;28;20049;-66
2023/01/28 10:02:14;;;;;;;5.65;3.42;;;3.20;99.90;;;;;;5014792;28;20041;-66
2023/01/28 10:04:43;;;;;;;5.05;3.53;;;2.80;99.90;;;;;;5014601;28;20042;-67
2023/01/28 10:07:26;;;;;;;6.75;3.80;;;3.00;99.90;;;;;;5015876;28;20053;-67
2023/01/28 10:09:59;;;;;;;7.07;3.30;;;3.20;99.90;;;;;;5014604;28;20480;-67
2023/01/28 10:12:36;;;;;;;4.85;2.83;;;3.10;99.90;;;;;;5015444;28;20116;-67
2023/01/28 10:15:17;;;;;;;6.03;2.58;;;3.10;99.90;;;;;;5014626;28;20057;-67
2023/01/28 10:17:46;;;;;;;5.32;2.85;;;3.20;99.90;;;;;;5014631;28;20050;-67
2023/01/28 10:20:15;;;;;;;4.85;2.55;;;3.40;99.90;;;;;;5014547;28;20077;-66
2023/01/28 10:22:52;;;;;;;4.03;2.63;;;3.50;99.90;;;;;;5014497;28;20077;-66
2023/01/28 10:25:20;;;;;;;3.78;2.60;;;3.20;99.90;;;;;;5015083;28;20049;-67
2023/01/28 10:27:48;;;;;;;4.55;2.65;;;3.40;99.90;;;;;;5014991;28;20490;-67
2023/01/28 10:30:24;;;;;;;4.90;2.92;;;3.60;99.90;;;;;;4980947;28;20132;-67
2023/01/28 10:33:17;;;;;;;7.30;3.30;;;3.20;99.90;;;;;;4998050;28;20041;-67
2023/01/28 10:35:43;;;;;;;4.93;2.83;;;3.40;99.90;;;;;;5014582;28;20038;-67
2023/01/28 10:38:24;;;;;;;3.80;2.60;;;3.70;99.90;;;;;;5014261;28;20384;-67
2023/01/28 10:40:50;;;;;;;4.20;2.83;;;3.30;99.90;;;;;;4996881;28;20053;-67
2023/01/28 10:43:21;;;;;;;4.57;2.78;;;3.60;99.90;;;;;;5014144;28;20395;-67
2023/01/28 10:46:08;;;;;;;4.55;2.78;;;3.40;99.90;;;;;;5014761;28;20144;-67
2023/01/28 10:48:39;;;;;;;3.35;2.30;;;3.50;99.90;;;;;;5013081;28;20053;-67
2023/01/28 10:51:06;;;;;;;4.43;2.17;;;3.70;99.90;;;;;;5014437;28;20057;-67
2023/01/28 10:53:42;;;;;;;4.15;2.67;;;3.80;99.90;;;;;;5014014;28;20402;-67
2023/01/28 10:56:26;;;;;;;5.38;2.60;;;3.60;99.90;;;;;;5014055;28;20103;-67
2023/01/28 10:58:58;;;;;;;6.28;2.80;;;3.70;99.90;;;;;;5014774;28;20168;-67
2023/01/28 11:01:24;;;;;;;4.17;2.73;;;4.50;99.90;;;;;;5014645;28;20081;-67
2023/01/28 11:03:57;;;;;;;4.53;2.70;;;4.50;99.90;;;;;;5013117;28;20471;-67
2023/01/28 11:06:26;;;;;;;4.13;2.72;;;4.10;99.90;;;;;;5014142;28;20054;-67
2023/01/28 11:08:52;;;;;;;3.80;2.47;;;3.30;99.90;;;;;;5014693;28;20482;-68
2023/01/28 11:11:26;;;;;;;4.18;2.55;;;4.00;99.90;;;;;;5014359;28;20191;-67
2023/01/28 11:13:57;;;;;;;3.47;2.60;;;3.70;99.90;;;;;;5013207;28;20081;-67
2023/01/28 11:16:23;;;;;;;4.15;2.47;;;4.40;99.90;;;;;;5015260;28;20135;-67
2023/01/28 11:18:56;;;;;;;3.60;2.58;;;4.10;99.90;;;;;;5017795;28;20037;-67
2023/01/28 11:21:26;;;;;;;5.65;2.85;;;4.00;99.90;;;;;;5017911;28;20053;-67
2023/01/28 11:23:59;;;;;;;3.42;2.53;;;4.10;99.90;;;;;;5016475;28;20049;-67
2023/01/28 11:26:31;;;;;;;;;;;3.90;99.90;;;;;;5018108;28;20057;-67
2023/01/28 11:28:57;;;;;;;4.65;2.30;;;3.90;99.90;;;;;;5017611;28;19991;-67
2023/01/28 11:31:24;;;;;;;3.80;1.90;;;4.10;99.90;;;;;;5016357;28;20096;-67
2023/01/28 11:33:58;;;;;;;5.95;2.55;;;4.00;99.90;;;;;;5017367;28;20052;-67
2023/01/28 11:36:30;;;;;;;5.97;2.60;;;4.50;99.90;;;;;;5016745;28;20085;-67
2023/01/28 11:39:01;;;;;;;4.35;2.55;;;3.40;99.90;;;;;;5018363;28;20401;-67
2023/01/28 11:41:40;;;;;;;3.63;2.47;;;4.00;99.90;;;;;;5000208;28;20049;-67
2023/01/28 11:44:15;;;;;;;3.88;2.55;;;4.30;99.90;;;;;;5018266;28;20046;-67
2023/01/28 11:46:50;;;;;;;4.45;2.00;;;4.30;99.90;;;;;;5017382;28;20050;-67
2023/01/28 11:49:27;;;;;;;4.72;2.33;;;4.40;99.90;;;;;;5017250;28;20100;-67
2023/01/28 11:52:00;;;;;;;4.30;2.85;;;4.10;99.90;;;;;;5016570;28;20041;-67
2023/01/28 11:54:35;;;;;;;4.22;2.20;;;4.10;99.90;;;;;;5016508;28;20050;-67
2023/01/28 11:57:12;;;;;;;3.70;2.55;;;4.40;99.90;;;;;;5017402;28;20042;-67
2023/01/28 11:59:58;;;;;;;3.92;2.08;;;4.20;99.90;;;;;;5000095;28;20129;-67
2023/01/28 12:02:43;;;;;;;4.43;2.75;;;4.10;99.90;;;;;;5017842;28;20065;-67
2023/01/28 12:05:29;;;;;;;7.50;3.58;;;4.20;99.90;;;;;;5019891;28;20065;-66
2023/01/28 12:08:25;;;;;;;7.00;3.53;;;4.10;99.90;;;;;;5017366;28;20057;-66
2023/01/28 12:11:02;;;;;;;3.45;2.65;;;4.10;99.90;;;;;;5016984;28;20144;-67
2023/01/28 12:13:31;;;;;;;4.13;2.90;;;4.80;99.90;;;;;;5015600;28;20406;-67
2023/01/28 12:16:26;;;;;;;3.97;2.83;;;4.50;99.90;;;;;;5017273;28;20053;-67
2023/01/28 12:19:23;;;;;;;4.82;2.55;;;4.20;99.90;;;;;;5017608;28;20485;-66
2023/01/28 12:22:17;;;;;;;3.38;2.30;;;4.20;99.90;;;;;;5015730;28;20050;-68
2023/01/28 12:24:57;;;;;;;4.20;2.92;;;4.10;99.90;;;;;;5011288;28;20060;-68
2023/01/28 12:28:00;;;;;;;5.10;3.20;;;4.50;99.90;;;;;;5015897;28;20488;-70
2023/01/28 12:30:49;;;;;;;6.10;3.17;;;4.20;99.90;;;;;;4999695;28;20096;-67
2023/01/28 12:33:21;;;;;;;4.72;2.83;;;4.10;99.90;;;;;;5015407;28;20132;-69
2023/01/28 12:35:49;;;;;;;4.75;3.00;;;4.10;99.90;;;;;;5016124;28;20557;-68
2023/01/28 12:38:41;;;;;;;5.25;3.25;;;4.10;99.90;;;;;;5016207;28;20129;-67
2023/01/28 12:41:12;;;;;;;5.20;2.70;;;4.40;99.90;;;;;;5016403;28;20095;-67
2023/01/28 12:43:53;;;;;;;4.88;2.92;;;4.40;99.90;;;;;;5016908;28;20116;-68
2023/01/28 12:46:32;;;;;;;4.90;2.53;;;4.60;99.90;;;;;;5015859;28;20050;-69
2023/01/28 12:49:08;;;;;;;6.55;2.92;;;4.30;99.90;;;;;;5016103;28;20184;-69
2023/01/28 12:52:02;;;;;;;5.20;3.33;;;4.70;99.90;;;;;;5016191;28;20133;-68
2023/01/28 12:54:32;;;;;;;5.32;3.15;;;4.50;99.90;;;;;;5016813;28;20081;-68
2023/01/28 12:56:59;;;;;;;7.47;3.22;;;4.50;99.90;;;;;;5016167;28;20052;-68
2023/01/28 12:59:33;;;;;;;4.80;2.95;;;4.60;99.90;;;;;;5015079;28;20112;-68
2023/01/28 13:02:11;;;;;;;6.05;3.30;;;4.60;99.90;;;;;;4998732;28;20088;-68
2023/01/28 13:04:42;;;;;;;5.88;3.20;;;5.00;99.90;;;;;;5015788;28;20085;-68
2023/01/28 13:07:13;;;;;;;4.60;2.67;;;4.70;99.90;;;;;;5015771;28;20141;-68
2023/01/28 13:09:48;;;;;;;7.47;3.63;;;4.80;99.90;;;;;;5015852;28;20049;-68
2023/01/28 13:12:15;;;;;;;7.03;3.25;;;4.80;99.90;;;;;;5015120;28;20041;-68
2023/01/28 13:14:41;;;;;;;5.10;3.00;;;5.10;99.90;;;;;;4998245;28;20490;-68
2023/01/28 13:17:11;;;;;;;6.25;3.15;;;4.90;99.90;;;;;;4999277;28;20061;-68
2023/01/28 13:19:40;;;;;;;5.85;3.60;;;5.20;99.90;;;;;;5015096;28;20112;-68
2023/01/28 13:22:25;;;;;;;5.95;3.83;;;5.20;99.90;;;;;;5015530;28;20050;-68
2023/01/28 13:24:51;;;;;;;4.82;3.10;;;5.00;99.90;;;;;;5015499;28;20050;-68
2023/01/28 13:27:28;;;;;;;6.03;3.53;;;5.10;99.90;;;;;;4998412;28;20506;-68
2023/01/28 13:30:20;;;;;;;4.85;2.90;;;5.10;99.90;;;;;;5014417;28;20053;-68
2023/01/28 13:32:58;;;;;;;4.25;2.90;;;5.20;99.90;;;;;;5016202;28;20050;-69
2023/01/28 13:35:29;;;;;;;4.65;2.90;;;5.10;99.90;;;;;;5015300;28;20057;-68
2023/01/28 13:37:56;;;;;;;7.00;4.00;;;5.50;99.90;;;;;;4998020;28;20442;-68
2023/01/28 13:40:27;;;;;;;5.72;3.80;;;5.10;99.90;;;;;;5014665;28;20171;-68
2023/01/28 13:42:58;;;;;;;7.72;4.18;;;5.50;99.90;;;;;;5015266;28;20065;-68
2023/01/28 13:45:25;;;;;;;7.18;3.90;;;5.00;99.90;;;;;;5014280;28;20049;-68
2023/01/28 13:47:57;;;;;;;6.35;3.67;;;5.00;99.90;;;;;;5015677;28;20045;-68
2023/01/28 13:50:38;;;;;;;7.60;4.53;;;4.90;99.90;;;;;;5014490;28;20083;-68